Time;durP1;ratioP1;P1;durP2;ratioP2;P2;SDS_P1;SDS_P2;PMS_P1;PMS_P2;Temp;Humidity;BMP_temperature;BMP_pressure;BME280_temperature;BME280_humidity;BME280_pressure;Samples;Min_cycle;Max_cycle;Signal;HPM_P1;HPM_P2
2021/07/11 00:00:12;;;;;;;12.40;8.33;;;;;;;23.37;40.97;95017.91;5019813;28;20193;-68
2021/07/11 00:02:39;;;;;;;13.33;8.87;;;;;;;23.34;41.31;95018.59;5003968;28;20224;-72
2021/07/11 00:05:09;;;;;;;16.50;9.20;;;;;;;23.27;41.30;94996.91;5017208;28;20867;-67
2021/07/11 00:07:36;;;;;;;12.33;9.17;;;;;;;23.33;40.47;95017.00;5001144;28;20676;-71
2021/07/11 00:10:09;;;;;;;14.67;10.10;;;;;;;23.40;41.29;95014.56;5014579;28;20201;-71
2021/07/11 00:12:37;;;;;;;15.97;9.47;;;;;;;23.25;40.75;95015.97;5028870;28;20217;-70
2021/07/11 00:15:07;;;;;;;10.57;8.87;;;;;;;23.25;41.28;95015.97;5029618;28;20564;-69
2021/07/11 00:17:34;;;;;;;11.83;9.63;;;;;;;23.29;41.68;95016.06;5029923;28;20193;-70
2021/07/11 00:20:04;;;;;;;13.43;8.93;;;;;;;23.24;40.46;95014.41;5029541;28;20235;-69
2021/07/11 00:22:31;;;;;;;14.10;8.70;;;;;;;23.17;42.14;95010.72;5018491;28;20687;-70
2021/07/11 00:24:58;;;;;;;11.53;7.73;;;;;;;23.11;41.30;95015.50;5034291;28;20201;-70
2021/07/11 00:27:25;;;;;;;12.60;7.00;;;;;;;23.13;40.66;95018.63;5034557;28;20288;-68
2021/07/11 00:29:51;;;;;;;10.27;6.50;;;;;;;23.14;41.11;95009.47;5006237;28;20198;-67
2021/07/11 00:32:18;;;;;;;8.97;6.63;;;;;;;23.12;41.74;95001.78;5006110;28;20234;-70
2021/07/11 00:34:45;;;;;;;9.90;6.00;;;;;;;23.14;41.15;95004.13;5003343;28;20193;-68
2021/07/11 00:37:12;;;;;;;9.30;6.20;;;;;;;23.13;40.76;95014.06;5024986;28;20204;-71
2021/07/11 00:39:39;;;;;;;8.13;5.80;;;;;;;23.02;40.33;95006.78;5016173;28;20224;-67
2021/07/11 00:42:10;;;;;;;9.73;5.80;;;;;;;23.11;41.46;95010.94;5034963;28;20237;-67
2021/07/11 00:44:38;;;;;;;9.40;5.67;;;;;;;23.06;41.17;95007.69;5014522;28;20205;-69
2021/07/11 00:47:07;;;;;;;10.83;6.73;;;;;;;22.95;41.09;95010.00;5027949;28;20201;-67
2021/07/11 00:49:36;;;;;;;13.67;8.20;;;;;;;22.91;41.59;95001.09;5028516;28;20664;-69
2021/07/11 00:52:06;;;;;;;12.10;8.80;;;;;;;22.97;41.82;95004.31;5014899;28;20213;-67
2021/07/11 00:54:34;;;;;;;14.50;9.90;;;;;;;22.88;41.63;95001.72;5008121;28;20205;-65
2021/07/11 00:57:03;;;;;;;16.57;10.37;;;;;;;22.79;41.77;95002.94;5007828;28;20232;-67
2021/07/11 00:59:34;;;;;;;12.70;9.80;;;;;;;22.77;41.57;95003.25;5014351;28;20328;-68
2021/07/11 01:02:10;;;;;;;11.40;8.90;;;;;;;22.69;41.56;95006.78;5000346;28;21080;-68
2021/07/11 01:05:16;;;;;;;11.67;8.37;;;;;;;22.79;41.63;95003.69;5003239;28;20731;-70
2021/07/11 01:07:58;;;;;;;11.70;7.33;;;;;;;22.68;41.43;95007.13;5015996;28;20759;-69
2021/07/11 01:10:46;;;;;;;13.83;8.33;;;;;;;22.79;42.01;95000.25;5011125;28;20211;-69
2021/07/11 01:13:17;;;;;;;9.43;6.50;;;;;;;22.77;41.88;94989.88;5016358;28;20252;-70
2021/07/11 01:15:53;;;;;;;9.93;6.20;;;;;;;22.73;41.72;94997.03;5032035;28;20236;-68
2021/07/11 01:18:23;;;;;;;9.40;5.47;;;;;;;22.63;42.15;94996.63;5011266;28;20598;-69
2021/07/11 01:21:02;;;;;;;7.30;5.30;;;;;;;22.68;41.83;94997.19;5026017;28;20251;-67
2021/07/11 01:23:57;;;;;;;5.80;4.97;;;;;;;22.59;41.90;94990.41;5022636;28;20213;-69
2021/07/11 01:26:29;;;;;;;7.30;5.03;;;;;;;22.58;41.28;94992.28;5023029;28;20206;-69
2021/07/11 01:28:58;;;;;;;10.47;4.43;;;;;;;22.50;41.62;94987.00;5002955;28;20944;-65
2021/07/11 01:31:30;;;;;;;7.90;4.67;;;;;;;22.69;41.44;94985.41;5002167;28;20288;-70
2021/07/11 01:33:59;;;;;;;8.37;4.33;;;;;;;22.59;41.85;94993.81;5000972;28;20222;-70
2021/07/11 01:36:28;;;;;;;7.70;4.23;;;;;;;22.47;41.59;94991.09;4994917;28;20220;-71
2021/07/11 01:38:57;;;;;;;9.83;4.47;;;;;;;22.51;41.68;94988.53;5015392;28;20209;-69
2021/07/11 01:41:40;;;;;;;6.57;4.20;;;;;;;22.45;41.95;94982.63;5024922;28;20234;-68
2021/07/11 01:44:09;;;;;;;7.33;4.20;;;;;;;22.45;42.05;94987.97;5010169;28;20594;-69
2021/07/11 01:46:41;;;;;;;6.77;5.07;;;;;;;22.48;42.73;94987.28;5025981;28;20210;-73
2021/07/11 01:49:13;;;;;;;9.60;4.80;;;;;;;22.55;42.37;94992.94;5014742;28;20197;-69
2021/07/11 01:51:45;;;;;;;6.73;4.50;;;;;;;22.47;42.17;94984.97;5020250;28;20271;-69
2021/07/11 01:54:13;;;;;;;5.13;4.10;;;;;;;22.50;42.20;94997.69;5027499;28;20231;-72
2021/07/11 01:56:41;;;;;;;8.57;4.63;;;;;;;22.42;42.74;94985.94;5021401;28;20293;-72
2021/07/11 01:59:13;;;;;;;7.23;4.43;;;;;;;22.52;42.35;94990.88;5012536;28;20686;-70
2021/07/11 02:02:03;;;;;;;6.97;4.60;;;;;;;22.40;42.55;94988.16;4995840;28;20216;-66
2021/07/11 02:04:30;;;;;;;8.87;4.60;;;;;;;22.38;42.44;95000.28;5015961;28;20205;-70
2021/07/11 02:06:58;;;;;;;6.70;5.27;;;;;;;22.36;42.59;95003.28;5012054;28;20220;-70
2021/07/11 02:09:27;;;;;;;7.40;4.47;;;;;;;22.34;42.91;94997.47;5001986;28;20214;-69
2021/07/11 02:12:04;;;;;;;9.60;4.87;;;;;;;22.28;42.75;95009.44;5020009;28;20202;-71
2021/07/11 02:14:47;;;;;;;8.70;5.53;;;;;;;22.26;42.76;95010.91;5009109;28;20206;-66
2021/07/11 02:17:20;;;;;;;8.87;5.03;;;;;;;22.29;42.79;95013.69;5012565;28;20222;-70
2021/07/11 02:20:08;;;;;;;7.10;4.93;;;;;;;22.31;42.87;95016.81;5031186;28;20232;-70
2021/07/11 02:22:42;;;;;;;12.27;5.53;;;;;;;22.30;42.75;95004.56;5016355;28;20197;-67
2021/07/11 02:25:13;;;;;;;8.53;5.10;;;;;;;22.39;42.45;95005.28;5010976;28;20702;-69
2021/07/11 02:27:44;;;;;;;6.97;4.67;;;;;;;22.29;42.75;95012.91;5009698;28;20206;-67
2021/07/11 02:30:25;;;;;;;12.13;5.37;;;;;;;22.12;42.98;95006.59;5000405;28;20206;-68
2021/07/11 02:32:54;;;;;;;9.20;5.30;;;;;;;22.18;42.73;95015.19;5003465;28;20216;-70
2021/07/11 02:35:37;;;;;;;9.07;4.80;;;;;;;22.06;42.94;95015.13;5007395;28;20641;-71
2021/07/11 02:38:07;;;;;;;8.17;4.40;;;;;;;22.03;42.98;95018.41;4997526;28;20208;-66
2021/07/11 02:40:35;;;;;;;10.43;4.83;;;;;;;22.07;42.91;95019.34;5016888;28;20241;-70
2021/07/11 02:43:06;;;;;;;9.50;4.93;;;;;;;21.99;43.23;95023.63;5016275;28;20208;-70
2021/07/11 02:45:37;;;;;;;6.23;4.50;;;;;;;21.84;43.31;94994.06;5018371;28;20676;-68
2021/07/11 02:48:10;;;;;;;6.53;4.70;;;;;;;21.94;43.24;95021.16;5040112;28;20248;-68
2021/07/11 02:50:45;;;;;;;9.10;4.30;;;;;;;21.91;43.36;95016.47;5024262;28;20742;-71
2021/07/11 02:53:19;;;;;;;10.27;4.67;;;;;;;22.03;43.24;95026.44;5020652;28;20253;-68
2021/07/11 02:55:53;;;;;;;7.37;5.00;;;;;;;21.98;43.30;95023.94;5009951;28;20284;-69
2021/07/11 02:58:27;;;;;;;7.43;4.10;;;;;;;21.76;43.65;95025.00;5006656;28;20200;-72
2021/07/11 03:00:58;;;;;;;7.00;4.97;;;;;;;21.90;43.67;95025.56;5003404;28;20198;-69
2021/07/11 03:03:28;;;;;;;11.63;4.57;;;;;;;21.91;43.39;95023.69;4999506;28;20238;-69
2021/07/11 03:06:00;;;;;;;6.60;4.67;;;;;;;21.75;43.99;95031.41;5002348;28;20209;-70
2021/07/11 03:08:27;;;;;;;9.27;4.63;;;;;;;21.88;43.79;95032.31;5019220;28;20260;-68
2021/07/11 03:11:03;;;;;;;6.20;4.87;;;;;;;22.03;43.29;95034.44;5019071;28;20201;-69
2021/07/11 03:13:34;;;;;;;8.63;4.37;;;;;;;22.10;43.14;95034.69;5013251;28;20222;-68
2021/07/11 03:16:04;;;;;;;8.93;4.87;;;;;;;22.07;43.24;95030.03;5022261;28;20208;-70
2021/07/11 03:18:37;;;;;;;7.57;4.60;;;;;;;22.11;43.37;95037.06;5016169;28;20193;-65
2021/07/11 03:21:06;;;;;;;9.00;5.10;;;;;;;22.19;43.17;95027.41;5008946;28;20190;-67
2021/07/11 03:23:35;;;;;;;8.30;4.93;;;;;;;22.17;42.85;95030.41;5008620;28;20248;-68
2021/07/11 03:26:03;;;;;;;8.07;4.60;;;;;;;22.22;43.27;95026.78;5009017;28;20206;-67
2021/07/11 03:28:30;;;;;;;11.73;4.97;;;;;;;22.10;43.48;95034.69;5006800;28;20202;-71
2021/07/11 03:31:03;;;;;;;7.43;4.30;;;;;;;22.15;43.10;95039.88;5014875;28;20204;-65
2021/07/11 03:33:31;;;;;;;9.03;4.87;;;;;;;22.22;43.36;95032.13;4998433;28;20324;-72
2021/07/11 03:36:02;;;;;;;7.90;4.37;;;;;;;22.09;43.26;95028.59;4997574;28;20217;-66
2021/07/11 03:38:46;;;;;;;5.13;4.50;;;;;;;22.08;43.65;95039.56;5008066;28;20666;-67
2021/07/11 03:41:19;;;;;;;9.20;4.33;;;;;;;22.25;43.33;95036.81;5015566;28;20716;-66
2021/07/11 03:43:53;;;;;;;6.97;4.87;;;;;;;22.24;43.63;95037.91;5019977;28;20201;-67
2021/07/11 03:46:25;;;;;;;9.80;4.67;;;;;;;22.29;43.67;95029.72;5014927;28;20185;-67
2021/07/11 03:48:58;;;;;;;6.23;4.40;;;;;;;22.32;43.72;95031.72;5029786;28;20208;-68
2021/07/11 03:51:30;;;;;;;5.77;4.20;;;;;;;22.41;43.47;95037.78;5021404;28;20229;-64
2021/07/11 03:53:59;;;;;;;11.67;4.50;;;;;;;22.41;43.64;95024.44;5023476;28;20683;-69
2021/07/11 03:56:28;;;;;;;9.00;4.93;;;;;;;22.62;43.60;95035.94;5016157;28;20281;-71
2021/07/11 03:58:57;;;;;;;12.03;5.03;;;;;;;22.59;43.18;95038.47;5022555;28;20204;-67
2021/07/11 04:01:27;;;;;;;6.97;5.13;;;;;;;22.71;43.10;95039.31;5004767;28;20197;-70
2021/07/11 04:03:56;;;;;;;9.70;6.53;;;;;;;22.42;43.60;95051.91;5017585;28;20211;-70
2021/07/11 04:06:26;;;;;;;16.63;6.77;;;;;;;22.38;43.55;95049.13;5012736;28;20968;-69
2021/07/11 04:08:56;;;;;;;12.03;6.50;;;;;;;22.46;43.52;95042.94;5012238;28;20548;-70
2021/07/11 04:11:23;;;;;;;12.83;6.20;;;;;;;22.66;43.39;95042.16;5028672;28;20212;-71
2021/07/11 04:13:51;;;;;;;9.03;6.17;;;;;;;22.60;43.42;95053.38;5029437;28;20232;-66
2021/07/11 04:16:23;;;;;;;11.23;5.63;;;;;;;22.62;42.99;95056.50;5028503;28;20671;-68
2021/07/11 04:18:54;;;;;;;12.93;5.93;;;;;;;22.78;42.76;95046.78;5029335;28;20205;-70
2021/07/11 04:21:23;;;;;;;11.30;5.77;;;;;;;22.81;43.48;95049.56;5029146;28;20259;-68
2021/07/11 04:23:51;;;;;;;8.93;5.50;;;;;;;22.76;43.62;95052.44;5015589;28;20229;-71
2021/07/11 04:26:19;;;;;;;7.40;5.27;;;;;;;22.86;43.64;95056.63;5015912;28;20202;-67
2021/07/11 04:28:48;;;;;;;12.00;6.50;;;;;;;22.85;43.18;95061.19;5029978;28;20258;-68
2021/07/11 04:31:18;;;;;;;7.40;5.17;;;;;;;22.82;43.47;95053.81;5017354;28;20202;-67
2021/07/11 04:33:46;;;;;;;11.07;5.97;;;;;;;22.89;43.21;95050.59;5028077;28;20260;-67
2021/07/11 04:36:13;;;;;;;12.07;6.10;;;;;;;22.85;43.75;95061.19;5019500;28;20201;-66
2021/07/11 04:38:40;;;;;;;11.10;5.83;;;;;;;22.95;43.20;95055.44;5029826;28;20619;-66
2021/07/11 04:41:09;;;;;;;9.90;5.90;;;;;;;23.05;43.42;95065.69;5022493;28;20230;-68
2021/07/11 04:43:37;;;;;;;15.30;6.23;;;;;;;23.14;43.32;95069.06;5028963;28;20185;-67
2021/07/11 04:46:04;;;;;;;9.47;5.77;;;;;;;23.14;43.21;95068.28;5023557;28;20210;-65
2021/07/11 04:48:31;;;;;;;13.97;6.73;;;;;;;23.10;43.88;95057.47;5015794;28;20197;-67
2021/07/11 04:50:58;;;;;;;10.63;7.13;;;;;;;23.17;43.71;95063.06;5026333;28;20197;-69
2021/07/11 04:53:25;;;;;;;13.87;7.40;;;;;;;23.25;43.73;95063.31;5019436;28;20213;-71
2021/07/11 04:55:54;;;;;;;9.17;5.43;;;;;;;22.95;44.29;95066.13;5025170;28;20201;-69
2021/07/11 04:58:21;;;;;;;9.20;6.20;;;;;;;22.97;43.83;95063.13;5022299;28;20348;-68
2021/07/11 05:00:48;;;;;;;9.20;6.40;;;;;;;23.31;43.65;95067.34;5025722;28;20639;-70
2021/07/11 05:03:15;;;;;;;8.67;6.00;;;;;;;23.37;42.88;95066.03;5032833;28;20204;-67
2021/07/11 05:05:42;;;;;;;8.80;6.00;;;;;;;23.32;43.31;95066.25;5032854;28;20209;-66
2021/07/11 05:08:09;;;;;;;6.63;5.30;;;;;;;23.46;42.53;95069.41;5026909;28;20190;-69
2021/07/11 05:10:35;;;;;;;9.53;6.33;;;;;;;23.54;42.61;95065.88;5023728;28;20201;-68
2021/07/11 05:13:02;;;;;;;7.97;5.87;;;;;;;23.62;42.61;95062.28;5026957;28;20196;-70
2021/07/11 05:15:29;;;;;;;10.43;5.77;;;;;;;23.49;43.82;95068.72;5031307;28;20255;-71
2021/07/11 05:17:56;;;;;;;9.90;6.20;;;;;;;23.65;42.66;95062.41;5031612;28;20209;-71
2021/07/11 05:20:23;;;;;;;11.43;5.67;;;;;;;23.49;43.51;95068.72;5031105;28;20204;-70
2021/07/11 05:22:50;;;;;;;6.40;5.33;;;;;;;23.40;43.05;95068.03;5025897;28;20576;-70
2021/07/11 05:25:17;;;;;;;8.23;5.30;;;;;;;23.44;43.31;95067.06;5031850;28;20189;-67
2021/07/11 05:27:44;;;;;;;8.80;6.13;;;;;;;23.67;42.67;95054.03;5023647;28;20197;-69
2021/07/11 05:30:12;;;;;;;7.97;5.70;;;;;;;23.69;43.33;95054.47;5030202;28;20205;-71
2021/07/11 05:32:39;;;;;;;8.97;5.53;;;;;;;23.78;42.91;95057.84;5031865;28;20197;-71
2021/07/11 05:35:06;;;;;;;10.33;5.67;;;;;;;23.68;43.32;95060.97;5031516;28;20381;-72
2021/07/11 05:37:33;;;;;;;9.27;5.87;;;;;;;23.82;42.98;95056.84;5031743;28;20208;-71
2021/07/11 05:40:00;;;;;;;10.77;6.07;;;;;;;23.87;43.06;95053.94;5031380;28;20212;-67
2021/07/11 05:42:27;;;;;;;10.43;6.17;;;;;;;23.84;43.41;95059.19;5031448;28;20229;-72
2021/07/11 05:44:54;;;;;;;15.33;6.07;;;;;;;23.85;43.35;95061.53;5028179;28;20197;-73
2021/07/11 05:47:20;;;;;;;8.80;6.03;;;;;;;23.98;43.14;95060.41;5031181;28;20197;-72
2021/07/11 05:49:47;;;;;;;9.13;5.87;;;;;;;24.02;43.78;95065.91;5032066;28;20197;-72
2021/07/11 05:52:19;;;;;;;8.00;6.30;;;;;;;24.00;42.61;95062.75;5019421;28;20208;-76
2021/07/11 05:54:45;;;;;;;10.43;6.07;;;;;;;24.25;42.89;95061.63;5024902;28;20237;-74
2021/07/11 05:57:12;;;;;;;8.90;6.67;;;;;;;24.47;41.97;95066.50;5025551;28;20223;-72
2021/07/11 05:59:39;;;;;;;7.70;6.43;;;;;;;24.42;41.78;95074.78;5030742;28;20196;-72
2021/07/11 06:02:07;;;;;;;9.70;6.20;;;;;;;24.47;42.16;95061.16;5031656;28;20208;-75
2021/07/11 06:04:34;;;;;;;9.23;6.50;;;;;;;24.42;42.52;95053.34;5017955;28;20678;-72
2021/07/11 06:07:00;;;;;;;9.87;6.67;;;;;;;24.40;43.21;95050.22;5031562;28;20197;-73
2021/07/11 06:09:27;;;;;;;7.93;7.13;;;;;;;24.59;42.69;95057.66;5031588;28;20201;-72
2021/07/11 06:11:54;;;;;;;15.93;7.17;;;;;;;24.81;42.36;95059.88;5030847;28;20200;-70
2021/07/11 06:14:22;;;;;;;24.10;16.57;;;;;;;24.84;41.66;95059.16;5030590;28;20237;-70
2021/07/11 06:16:49;;;;;;;16.10;11.10;;;;;;;24.85;41.19;95050.03;5030935;28;20733;-67
2021/07/11 06:19:18;;;;;;;15.67;9.60;;;;;;;25.14;41.25;95051.56;5028900;28;20236;-69
2021/07/11 06:21:45;;;;;;;24.67;18.37;;;;;;;25.25;41.16;95049.94;5029487;28;20303;-68
2021/07/11 06:24:11;;;;;;;9.93;7.27;;;;;;;25.22;41.80;95056.00;5038601;28;20200;-67
2021/07/11 06:26:38;;;;;;;16.03;13.50;;;;;;;25.28;40.82;95051.94;5031215;28;20197;-66
2021/07/11 06:29:05;;;;;;;32.03;26.97;;;;;;;25.42;39.85;95046.97;5030359;28;20201;-68
2021/07/11 06:31:32;;;;;;;31.70;27.07;;;;;;;25.49;40.94;95041.78;5031453;28;20223;-68
2021/07/11 06:34:00;;;;;;;28.93;24.73;;;;;;;25.80;39.63;95041.78;5029723;28;20268;-66
2021/07/11 06:36:27;;;;;;;16.10;10.50;;;;;;;25.95;39.21;95049.81;5030986;28;20272;-66
2021/07/11 06:38:54;;;;;;;15.07;12.33;;;;;;;25.88;38.79;95048.88;5030750;28;20204;-68
2021/07/11 06:41:21;;;;;;;15.07;12.23;;;;;;;26.16;39.42;95035.34;5030717;28;20293;-66
2021/07/11 06:43:48;;;;;;;47.33;41.37;;;;;;;26.09;39.00;95038.66;5016298;28;20194;-66
2021/07/11 06:46:15;;;;;;;18.40;14.03;;;;;;;26.02;38.86;95038.47;5030982;28;20205;-65
2021/07/11 06:48:43;;;;;;;13.30;8.40;;;;;;;26.13;38.46;95050.25;5030383;28;20668;-66
2021/07/11 06:51:10;;;;;;;8.97;7.00;;;;;;;26.18;38.54;95036.56;5030855;28;20191;-66
2021/07/11 06:53:38;;;;;;;10.83;6.47;;;;;;;26.05;39.03;95040.50;5030390;28;20193;-68
2021/07/11 06:56:05;;;;;;;8.17;5.97;;;;;;;26.02;38.05;95030.41;5012565;28;20284;-67
2021/07/11 06:58:32;;;;;;;10.57;7.23;;;;;;;26.08;39.28;95037.09;5020038;28;20663;-65
2021/07/11 07:01:00;;;;;;;33.17;21.97;;;;;;;26.23;38.86;95038.19;5030101;28;20206;-65
2021/07/11 07:03:27;;;;;;;12.57;8.87;;;;;;;26.36;38.87;95037.72;5030845;28;20208;-65
2021/07/11 07:05:54;;;;;;;8.10;7.00;;;;;;;26.23;38.59;95038.97;5030361;28;20204;-66
2021/07/11 07:08:23;;;;;;;9.53;6.33;;;;;;;26.41;38.14;95031.28;5023395;28;20229;-65
2021/07/11 07:10:50;;;;;;;15.80;8.77;;;;;;;26.61;38.91;95027.50;5023182;28;20500;-67
2021/07/11 07:13:19;;;;;;;82.30;73.37;;;;;;;26.66;39.58;95025.31;5028738;28;20269;-69
2021/07/11 07:15:47;;;;;;;14.43;7.77;;;;;;;26.69;37.79;95029.22;5028945;28;20224;-66
2021/07/11 07:18:14;;;;;;;9.77;5.80;;;;;;;26.35;36.82;95030.78;5029427;28;20245;-69
2021/07/11 07:20:41;;;;;;;9.13;6.97;;;;;;;26.65;36.88;95028.34;5030269;28;20211;-68
2021/07/11 07:23:08;;;;;;;42.73;36.17;;;;;;;26.91;37.20;95036.59;5028281;28;20655;-64
2021/07/11 07:25:34;;;;;;;23.20;17.73;;;;;;;26.90;37.42;95030.44;5019088;28;20197;-64
2021/07/11 07:28:02;;;;;;;9.53;5.97;;;;;;;26.85;37.12;95038.78;5029600;28;20621;-65
2021/07/11 07:30:29;;;;;;;102.70;91.60;;;;;;;26.97;37.65;95033.25;5030700;28;20201;-69
2021/07/11 07:32:56;;;;;;;8.97;7.17;;;;;;;26.93;35.66;95039.72;5018381;28;20204;-69
2021/07/11 07:35:22;;;;;;;15.47;13.87;;;;;;;27.20;36.39;95037.91;5029395;28;20779;-69
2021/07/11 07:38:08;;;;;;;40.23;33.37;;;;;;;27.31;37.46;95033.53;5030005;28;20189;-68
2021/07/11 07:40:35;;;;;;;22.03;18.90;;;;;;;27.45;36.49;95044.53;5031592;28;20232;-69
2021/07/11 07:43:02;;;;;;;11.03;6.77;;;;;;;27.37;34.89;95042.88;5035012;28;20197;-68
2021/07/11 07:45:29;;;;;;;11.40;6.67;;;;;;;27.48;35.47;95039.19;5031124;28;20193;-70
2021/07/11 07:47:56;;;;;;;10.87;5.40;;;;;;;27.66;36.21;95044.91;5015466;28;20292;-70
2021/07/11 07:50:23;;;;;;;8.03;5.07;;;;;;;27.45;35.26;95039.94;5026319;28;20201;-68
2021/07/11 07:52:50;;;;;;;11.27;6.20;;;;;;;27.57;35.41;95038.97;5026402;28;20195;-69
2021/07/11 07:55:18;;;;;;;8.90;5.53;;;;;;;27.54;35.17;95034.31;5025368;28;20228;-68
2021/07/11 07:57:45;;;;;;;7.90;5.57;;;;;;;27.40;35.13;95032.16;5026497;28;20193;-68
2021/07/11 08:00:14;;;;;;;12.67;10.13;;;;;;;27.42;35.02;95029.09;5016682;28;20194;-68
2021/07/11 08:02:42;;;;;;;9.63;7.03;;;;;;;27.61;35.32;95026.38;5024453;28;20197;-69
2021/07/11 08:05:09;;;;;;;8.93;5.10;;;;;;;27.68;34.04;95021.09;5028028;28;20193;-71
2021/07/11 08:07:36;;;;;;;20.97;18.10;;;;;;;27.87;34.60;95026.38;5029012;28;20197;-69
2021/07/11 08:10:07;;;;;;;18.33;15.00;;;;;;;27.87;34.85;95008.31;5028955;28;20190;-71
2021/07/11 08:12:34;;;;;;;12.00;6.90;;;;;;;27.97;35.20;95023.13;5020043;28;20265;-68
2021/07/11 08:15:01;;;;;;;10.07;5.00;;;;;;;27.69;33.26;95018.03;5013413;28;20569;-69
2021/07/11 08:17:28;;;;;;;9.47;5.60;;;;;;;27.99;33.74;95021.59;5013793;28;20248;-69
2021/07/11 08:19:55;;;;;;;7.67;4.20;;;;;;;28.01;33.62;95018.53;5027223;28;20193;-68
2021/07/11 08:22:22;;;;;;;9.20;4.93;;;;;;;28.23;33.42;95014.25;5013919;28;20201;-71
2021/07/11 08:24:49;;;;;;;7.30;4.57;;;;;;;28.15;32.72;95026.06;5015728;28;20279;-69
2021/07/11 08:27:16;;;;;;;6.13;4.93;;;;;;;28.32;32.86;95018.22;5033115;28;20200;-71
2021/07/11 08:29:43;;;;;;;14.03;9.70;;;;;;;28.32;32.20;95012.84;5032210;28;20212;-70
2021/07/11 08:32:10;;;;;;;9.47;4.90;;;;;;;28.60;31.96;95017.84;5034988;28;20196;-67
2021/07/11 08:34:37;;;;;;;7.30;5.07;;;;;;;28.86;31.67;95015.88;5034138;28;20233;-67
2021/07/11 08:37:04;;;;;;;7.70;5.03;;;;;;;28.85;32.32;95014.31;5033570;28;20200;-69
2021/07/11 08:39:35;;;;;;;7.67;4.63;;;;;;;28.55;31.33;95016.28;5025052;28;20205;-69
2021/07/11 08:42:08;;;;;;;7.50;4.53;;;;;;;28.75;31.53;94998.81;5026736;28;20228;-68
2021/07/11 08:44:35;;;;;;;6.90;4.40;;;;;;;28.78;32.20;95008.84;5019478;28;20621;-68
2021/07/11 08:47:03;;;;;;;9.47;5.03;;;;;;;28.86;31.53;94999.69;5033424;28;20193;-69
2021/07/11 08:49:31;;;;;;;8.30;4.30;;;;;;;29.00;31.10;95009.84;5032287;28;20675;-69
2021/07/11 08:52:00;;;;;;;7.43;4.27;;;;;;;28.96;30.39;95004.41;5033309;28;20197;-66
2021/07/11 08:54:27;;;;;;;5.03;4.10;;;;;;;28.83;29.56;95003.13;5031987;28;20213;-67
2021/07/11 08:57:01;;;;;;;5.97;4.27;;;;;;;29.11;29.92;94999.97;5022446;28;20623;-66
2021/07/11 08:59:28;;;;;;;6.90;3.83;;;;;;;29.10;30.18;95000.31;5026623;28;20229;-66
2021/07/11 09:01:56;;;;;;;7.70;4.20;;;;;;;29.05;29.40;95001.41;5023370;28;20201;-69
2021/07/11 09:04:24;;;;;;;6.67;4.10;;;;;;;29.07;28.63;94998.38;5018497;28;20202;-66
2021/07/11 09:06:55;;;;;;;8.20;4.40;;;;;;;29.42;30.27;94999.53;5032625;28;20189;-68
2021/07/11 09:09:26;;;;;;;8.80;3.50;;;;;;;29.05;27.65;94987.19;5032234;28;20207;-68
2021/07/11 09:12:09;;;;;;;25.40;21.03;;;;;;;29.25;28.76;94997.41;5032610;28;20197;-68
2021/07/11 09:14:56;;;;;;;5.93;3.83;;;;;;;29.11;28.47;94988.38;5031709;28;20710;-72
2021/07/11 09:17:23;;;;;;;4.87;4.20;;;;;;;29.02;28.39;94991.38;5020728;28;20668;-67
2021/07/11 09:19:53;;;;;;;8.13;4.23;;;;;;;29.40;28.83;94985.63;5028162;28;20198;-67
2021/07/11 09:22:25;;;;;;;6.37;3.73;;;;;;;29.56;27.85;95004.28;5021894;28;20264;-67
2021/07/11 09:25:04;;;;;;;5.17;4.27;;;;;;;29.55;28.20;94986.50;5029236;28;20217;-66
2021/07/11 09:27:34;;;;;;;5.60;3.93;;;;;;;29.23;28.51;94986.25;5032517;28;20292;-68
2021/07/11 09:30:04;;;;;;;6.10;4.03;;;;;;;29.82;28.14;94985.22;5027504;28;20578;-66
2021/07/11 09:32:38;;;;;;;6.53;3.83;;;;;;;29.69;26.40;94975.84;5012567;28;20205;-66
2021/07/11 09:35:14;;;;;;;4.73;3.53;;;;;;;29.47;25.24;94984.91;5025316;28;20605;-68
2021/07/11 09:37:49;;;;;;;7.07;3.37;;;;;;;30.04;25.18;94975.31;5034209;28;20205;-67
2021/07/11 09:40:17;;;;;;;5.90;3.67;;;;;;;30.01;24.99;94968.75;5034266;28;20711;-66
2021/07/11 09:42:47;;;;;;;6.70;3.40;;;;;;;29.79;25.40;94973.25;5035069;28;20205;-70
2021/07/11 09:45:24;;;;;;;6.33;3.20;;;;;;;29.83;26.38;94975.97;5035238;28;20236;-66
2021/07/11 09:47:55;;;;;;;7.73;3.37;;;;;;;29.96;25.71;94968.34;5035555;28;20753;-68
2021/07/11 09:50:24;;;;;;;22.77;19.13;;;;;;;30.18;26.19;94975.44;5036796;28;20205;-69
2021/07/11 09:52:53;;;;;;;10.60;6.17;;;;;;;30.24;27.21;94985.50;5035406;28;20596;-68
2021/07/11 09:55:24;;;;;;;7.73;4.23;;;;;;;30.32;27.06;94970.91;5035328;28;20209;-71
2021/07/11 09:57:55;;;;;;;9.17;4.00;;;;;;;30.48;26.95;94968.66;5031792;28;20320;-66
2021/07/11 10:00:27;;;;;;;6.03;3.50;;;;;;;29.89;24.67;94979.84;5027124;28;20200;-67
2021/07/11 10:02:57;;;;;;;4.90;3.80;;;;;;;30.22;25.58;94968.88;5033977;28;20204;-67
2021/07/11 10:05:25;;;;;;;6.37;3.33;;;;;;;30.56;25.70;94967.53;5031546;28;20205;-69
2021/07/11 10:07:53;;;;;;;4.80;3.33;;;;;;;30.51;24.45;94956.31;5014100;28;20182;-68
2021/07/11 10:10:29;;;;;;;6.30;3.20;;;;;;;30.84;25.41;94962.25;5020827;28;20248;-67
2021/07/11 10:12:57;;;;;;;7.33;3.60;;;;;;;30.68;23.71;94972.59;5028609;28;20297;-69
2021/07/11 10:15:27;;;;;;;6.50;3.60;;;;;;;30.35;23.88;94953.91;5020707;28;20225;-69
2021/07/11 10:18:03;;;;;;;4.10;2.63;;;;;;;30.09;22.90;94967.63;5017410;28;20197;-68
2021/07/11 10:20:42;;;;;;;3.87;3.43;;;;;;;30.49;23.84;94962.09;5031153;28;20201;-69
2021/07/11 10:23:22;;;;;;;7.17;4.40;;;;;;;31.03;23.17;94960.34;5031215;28;20197;-68
2021/07/11 10:26:12;;;;;;;3.63;3.27;;;;;;;30.97;22.96;94951.09;5031092;28;20204;-68
2021/07/11 10:28:43;;;;;;;6.33;3.27;;;;;;;31.04;24.86;94948.41;5031817;28;20310;-67
2021/07/11 10:31:27;;;;;;;7.77;4.93;;;;;;;31.15;24.56;94946.47;5031096;28;20197;-70
2021/07/11 10:33:57;;;;;;;5.73;3.93;;;;;;;31.41;24.68;94940.72;5018712;28;20643;-68
2021/07/11 10:36:32;;;;;;;7.07;3.43;;;;;;;31.13;24.03;94937.97;5030792;28;20209;-68
2021/07/11 10:38:59;;;;;;;9.03;3.67;;;;;;;31.13;22.88;94936.00;5031015;28;20623;-69
2021/07/11 10:41:29;;;;;;;3.97;3.10;;;;;;;30.99;22.67;94937.91;5030376;28;20240;-70
2021/07/11 10:44:04;;;;;;;6.00;3.43;;;;;;;31.33;23.06;94941.84;5030548;28;20212;-67
2021/07/11 10:46:34;;;;;;;8.60;4.93;;;;;;;31.53;22.31;94924.09;5030688;28;20612;-68
2021/07/11 10:49:13;;;;;;;15.97;14.30;;;;;;;31.72;22.75;94926.38;5030642;28;20217;-69
2021/07/11 10:51:48;;;;;;;7.63;4.67;;;;;;;31.71;23.07;94930.28;5030571;28;20579;-69
2021/07/11 10:54:48;;;;;;;6.53;3.93;;;;;;;31.37;22.69;94927.19;5029638;28;20193;-67
2021/07/11 10:57:33;;;;;;;4.83;3.53;;;;;;;31.59;23.51;94923.31;5030676;28;20632;-68
2021/07/11 11:00:30;;;;;;;4.93;3.80;;;;;;;31.95;23.76;94910.53;5030548;28;20186;-67
2021/07/11 11:02:59;;;;;;;5.00;3.40;;;;;;;31.91;22.09;94907.03;5026006;28;20256;-68
2021/07/11 11:05:26;;;;;;;3.83;3.13;;;;;;;32.34;21.68;94907.69;5010129;28;20204;-69
2021/07/11 11:07:55;;;;;;;3.30;3.00;;;;;;;31.79;21.43;94904.69;5024305;28;20691;-71
2021/07/11 11:10:27;;;;;;;8.47;3.70;;;;;;;31.97;21.07;94915.56;5020373;28;20280;-68
2021/07/11 11:13:08;;;;;;;4.33;3.20;;;;;;;32.10;23.37;94901.16;5030260;28;20319;-67
2021/07/11 11:15:49;;;;;;;4.23;3.70;;;;;;;32.21;23.42;94907.34;5030054;28;20267;-68
2021/07/11 11:18:25;;;;;;;5.40;4.03;;;;;;;32.55;23.71;94897.56;5015567;28;20197;-69
2021/07/11 11:20:56;;;;;;;4.37;3.97;;;;;;;32.43;24.12;94891.78;5029951;28;20201;-68
2021/07/11 11:23:25;;;;;;;5.70;3.10;;;;;;;32.49;22.33;94869.28;5030212;28;20207;-67
2021/07/11 11:25:53;;;;;;;5.40;3.57;;;;;;;32.07;21.57;94877.56;5029472;28;20197;-67
2021/07/11 11:28:32;;;;;;;4.17;3.53;;;;;;;32.49;22.01;94890.22;5030082;28;20209;-67
2021/07/11 11:31:11;;;;;;;7.53;3.97;;;;;;;32.41;22.41;94881.31;5029691;28;20207;-67
2021/07/11 11:33:48;;;;;;;6.07;3.87;;;;;;;32.07;21.41;94874.06;5025019;28;20197;-70
2021/07/11 11:36:21;;;;;;;8.10;3.80;;;;;;;32.48;22.06;94880.53;5029583;28;20256;-69
2021/07/11 11:38:49;;;;;;;3.80;3.30;;;;;;;32.12;21.57;94871.72;5030070;28;20282;-68
2021/07/11 11:41:18;;;;;;;4.00;3.60;;;;;;;32.51;22.30;94877.81;5029665;28;20252;-67
2021/07/11 11:43:47;;;;;;;4.07;3.33;;;;;;;32.81;21.03;94877.25;5030277;28;20193;-68